Dein Weg zu uns

Mit dem Auto

Kostenlose Parkplätze sind vorhanden und ausgeschildert.

Mit dem Flugzeug

Der Sonderlandeplatz Donzdorf EDPM liegt an der Nordwestkante der Schwäbischen Alb, direkt oberhalb der Stadt Donzdorf.

  • Lage: 48° 40,72 N, 09° 50,75 E; 1,5nm ESE von Donzdorf
    080°/24nm from TGO VORTAC 112.500
    208°/32nm from DKB DVORTAC 117.800
  • Elevation: 2272 ft, 693 m
  • Bahn: 09/27, 600m x 10m, Asphalt
  • Platzrunde: Süd, 3100 ft (Segelflug: Nord)
  • Funk: Donzdorf Info 122.600
  • FIS: Langen Information 128.950
  • ATIS: Stuttgart ATIS 126.125
  • Tel: C: 07162/23303
  • AIS: Frankfurt Tel. 069/78072511, 01803/337247, Fax 069/78072515
  • AIS: München Tel. 069/78072512, Fax 069/78072515
  • MET: 0900/1077227
  • Sprit: –
  • Zoll: –
  • UL-Zulassung: Ja

Weitere Informationen sind auf der Website der Fliegergruppe Donzdorf zu finden.

Stuttgart EDDS
STUTTGART/ECHTER
Metar
EDDS 210950Z 09003KT 020V150 9999 FEW016 13/09 Q1022 NOSIG

09:50 UTC

Wind: 90° 3kt

Visibility: 9999 m

Sky: FEW 1600 ft

Temp: 13 deg C / 55.4 deg F

Dewpoint: 9 deg C / 48.2 deg F

Pressure: 1022 hPa

TAF
TAF EDDS 210500Z 2106/2206 VRB03KT 7000 NSC TEMPO 2106/2109 0300 FG BKN001 BECMG 2111/2113 07005KT BECMG 2118/2120 VRB03KT TEMPO 2201/2206 3000 BCFG PROB30 TEMPO 2202/2206 0300 FG VV001